sensor_id;sensor_type;location;lat;lon;timestamp;P1;durP1;ratioP1;P2;durP2;ratioP2
16426;SDS011;8322;-33.900;151.170;2023-07-31T00:02:12;2.58;;;0.60;;
16426;SDS011;8322;-33.900;151.170;2023-07-31T00:04:42;3.28;;;0.90;;
16426;SDS011;8322;-33.900;151.170;2023-07-31T00:07:13;3.97;;;0.90;;
16426;SDS011;8322;-33.900;151.170;2023-07-31T00:09:43;1.88;;;0.70;;
16426;SDS011;8322;-33.900;151.170;2023-07-31T00:12:12;2.15;;;0.60;;
16426;SDS011;8322;-33.900;151.170;2023-07-31T00:14:41;2.83;;;1.10;;
16426;SDS011;8322;-33.900;151.170;2023-07-31T00:17:11;3.03;;;0.90;;
16426;SDS011;8322;-33.900;151.170;2023-07-31T00:19:40;2.60;;;0.70;;
16426;SDS011;8322;-33.900;151.170;2023-07-31T00:22:13;4.13;;;1.05;;
16426;SDS011;8322;-33.900;151.170;2023-07-31T00:24:43;1.13;;;0.90;;
16426;SDS011;8322;-33.900;151.170;2023-07-31T00:27:12;3.80;;;0.88;;
16426;SDS011;8322;-33.900;151.170;2023-07-31T00:29:42;3.40;;;1.17;;
16426;SDS011;8322;-33.900;151.170;2023-07-31T00:32:11;1.05;;;0.73;;
16426;SDS011;8322;-33.900;151.170;2023-07-31T00:34:41;2.53;;;0.70;;
16426;SDS011;8322;-33.900;151.170;2023-07-31T00:37:10;2.35;;;0.80;;
16426;SDS011;8322;-33.900;151.170;2023-07-31T00:39:43;2.22;;;0.70;;
16426;SDS011;8322;-33.900;151.170;2023-07-31T00:42:12;2.92;;;0.90;;
16426;SDS011;8322;-33.900;151.170;2023-07-31T00:44:41;2.22;;;0.73;;
16426;SDS011;8322;-33.900;151.170;2023-07-31T00:47:11;3.80;;;0.90;;
16426;SDS011;8322;-33.900;151.170;2023-07-31T00:49:40;1.55;;;0.90;;
16426;SDS011;8322;-33.900;151.170;2023-07-31T00:52:10;2.05;;;0.73;;
16426;SDS011;8322;-33.900;151.170;2023-07-31T00:54:39;2.53;;;0.80;;
16426;SDS011;8322;-33.900;151.170;2023-07-31T00:57:11;1.85;;;0.75;;
16426;SDS011;8322;-33.900;151.170;2023-07-31T00:59:40;2.00;;;0.95;;
16426;SDS011;8322;-33.900;151.170;2023-07-31T01:02:10;2.63;;;0.60;;
16426;SDS011;8322;-33.900;151.170;2023-07-31T01:04:39;2.33;;;0.70;;
16426;SDS011;8322;-33.900;151.170;2023-07-31T01:07:10;1.73;;;0.90;;
16426;SDS011;8322;-33.900;151.170;2023-07-31T01:09:42;3.10;;;0.93;;
16426;SDS011;8322;-33.900;151.170;2023-07-31T01:12:15;2.33;;;0.60;;
16426;SDS011;8322;-33.900;151.170;2023-07-31T01:15:02;1.30;;;0.65;;
16426;SDS011;8322;-33.900;151.170;2023-07-31T01:17:31;0.73;;;0.50;;
16426;SDS011;8322;-33.900;151.170;2023-07-31T01:20:02;1.58;;;0.68;;
16426;SDS011;8322;-33.900;151.170;2023-07-31T01:22:39;2.03;;;0.85;;
16426;SDS011;8322;-33.900;151.170;2023-07-31T01:25:14;0.77;;;0.65;;
16426;SDS011;8322;-33.900;151.170;2023-07-31T01:27:50;2.10;;;1.00;;
16426;SDS011;8322;-33.900;151.170;2023-07-31T01:30:22;1.70;;;0.70;;
16426;SDS011;8322;-33.900;151.170;2023-07-31T01:32:54;2.05;;;0.90;;
16426;SDS011;8322;-33.900;151.170;2023-07-31T01:35:24;1.25;;;0.70;;
16426;SDS011;8322;-33.900;151.170;2023-07-31T01:37:53;2.65;;;0.70;;
16426;SDS011;8322;-33.900;151.170;2023-07-31T01:40:22;2.85;;;0.70;;
16426;SDS011;8322;-33.900;151.170;2023-07-31T01:42:54;1.88;;;0.77;;
16426;SDS011;8322;-33.900;151.170;2023-07-31T01:45:23;1.10;;;0.70;;
16426;SDS011;8322;-33.900;151.170;2023-07-31T01:47:53;1.65;;;0.80;;
16426;SDS011;8322;-33.900;151.170;2023-07-31T01:50:22;1.23;;;0.70;;
16426;SDS011;8322;-33.900;151.170;2023-07-31T01:52:52;2.47;;;1.08;;
16426;SDS011;8322;-33.900;151.170;2023-07-31T01:55:21;0.75;;;0.60;;
16426;SDS011;8322;-33.900;151.170;2023-07-31T01:57:50;0.73;;;0.50;;
16426;SDS011;8322;-33.900;151.170;2023-07-31T02:00:22;1.77;;;0.80;;
16426;SDS011;8322;-33.900;151.170;2023-07-31T02:02:51;1.42;;;0.70;;
16426;SDS011;8322;-33.900;151.170;2023-07-31T02:05:21;1.45;;;0.65;;
16426;SDS011;8322;-33.900;151.170;2023-07-31T02:07:51;2.97;;;1.05;;
16426;SDS011;8322;-33.900;151.170;2023-07-31T02:10:21;0.90;;;0.80;;
16426;SDS011;8322;-33.900;151.170;2023-07-31T02:12:51;1.48;;;0.65;;
16426;SDS011;8322;-33.900;151.170;2023-07-31T02:15:22;1.85;;;0.60;;
16426;SDS011;8322;-33.900;151.170;2023-07-31T02:17:51;1.00;;;0.60;;
16426;SDS011;8322;-33.900;151.170;2023-07-31T02:20:21;2.55;;;0.95;;
16426;SDS011;8322;-33.900;151.170;2023-07-31T02:22:50;1.20;;;0.70;;
16426;SDS011;8322;-33.900;151.170;2023-07-31T02:25:20;2.05;;;0.65;;
16426;SDS011;8322;-33.900;151.170;2023-07-31T02:27:49;4.68;;;1.83;;
16426;SDS011;8322;-33.900;151.170;2023-07-31T02:30:19;2.80;;;0.75;;
16426;SDS011;8322;-33.900;151.170;2023-07-31T02:32:51;1.75;;;0.50;;
16426;SDS011;8322;-33.900;151.170;2023-07-31T02:35:20;3.15;;;0.65;;
16426;SDS011;8322;-33.900;151.170;2023-07-31T02:37:50;3.65;;;0.73;;
16426;SDS011;8322;-33.900;151.170;2023-07-31T02:40:20;3.63;;;0.80;;
16426;SDS011;8322;-33.900;151.170;2023-07-31T02:42:49;0.70;;;0.50;;
16426;SDS011;8322;-33.900;151.170;2023-07-31T02:45:21;0.85;;;0.50;;
16426;SDS011;8322;-33.900;151.170;2023-07-31T02:47:53;2.70;;;0.52;;
16426;SDS011;8322;-33.900;151.170;2023-07-31T02:50:22;2.10;;;0.77;;
16426;SDS011;8322;-33.900;151.170;2023-07-31T02:52:51;2.67;;;1.30;;
16426;SDS011;8322;-33.900;151.170;2023-07-31T02:55:21;2.42;;;0.90;;
16426;SDS011;8322;-33.900;151.170;2023-07-31T02:57:50;2.63;;;0.90;;
16426;SDS011;8322;-33.900;151.170;2023-07-31T03:00:20;2.20;;;0.80;;
16426;SDS011;8322;-33.900;151.170;2023-07-31T03:02:49;0.95;;;0.60;;
16426;SDS011;8322;-33.900;151.170;2023-07-31T03:05:20;2.83;;;1.00;;
16426;SDS011;8322;-33.900;151.170;2023-07-31T03:07:50;1.83;;;0.80;;
16426;SDS011;8322;-33.900;151.170;2023-07-31T03:10:19;2.53;;;0.80;;
16426;SDS011;8322;-33.900;151.170;2023-07-31T03:12:49;1.88;;;0.75;;
16426;SDS011;8322;-33.900;151.170;2023-07-31T03:15:18;3.92;;;2.10;;
16426;SDS011;8322;-33.900;151.170;2023-07-31T03:17:48;1.20;;;0.70;;
16426;SDS011;8322;-33.900;151.170;2023-07-31T03:20:17;1.42;;;1.02;;
16426;SDS011;8322;-33.900;151.170;2023-07-31T03:22:48;2.08;;;0.75;;
16426;SDS011;8322;-33.900;151.170;2023-07-31T03:25:18;3.53;;;0.73;;
16426;SDS011;8322;-33.900;151.170;2023-07-31T03:27:47;2.60;;;0.90;;
16426;SDS011;8322;-33.900;151.170;2023-07-31T03:30:17;1.13;;;0.82;;
16426;SDS011;8322;-33.900;151.170;2023-07-31T03:32:46;3.22;;;0.70;;
16426;SDS011;8322;-33.900;151.170;2023-07-31T03:35:16;0.98;;;0.80;;
16426;SDS011;8322;-33.900;151.170;2023-07-31T03:37:45;1.20;;;0.60;;
16426;SDS011;8322;-33.900;151.170;2023-07-31T03:40:17;2.15;;;0.85;;
16426;SDS011;8322;-33.900;151.170;2023-07-31T03:42:46;0.93;;;0.70;;
16426;SDS011;8322;-33.900;151.170;2023-07-31T03:45:16;1.95;;;0.77;;
16426;SDS011;8322;-33.900;151.170;2023-07-31T03:47:45;1.83;;;0.75;;
16426;SDS011;8322;-33.900;151.170;2023-07-31T03:50:15;3.15;;;1.00;;
16426;SDS011;8322;-33.900;151.170;2023-07-31T03:52:45;2.28;;;0.93;;
16426;SDS011;8322;-33.900;151.170;2023-07-31T03:55:16;3.33;;;0.90;;
16426;SDS011;8322;-33.900;151.170;2023-07-31T03:57:46;2.42;;;0.70;;
16426;SDS011;8322;-33.900;151.170;2023-07-31T04:00:15;1.30;;;0.63;;
16426;SDS011;8322;-33.900;151.170;2023-07-31T04:02:48;4.35;;;0.88;;
16426;SDS011;8322;-33.900;151.170;2023-07-31T04:05:17;1.10;;;0.55;;
16426;SDS011;8322;-33.900;151.170;2023-07-31T04:07:47;2.42;;;0.65;;
16426;SDS011;8322;-33.900;151.170;2023-07-31T04:10:18;1.58;;;0.80;;
16426;SDS011;8322;-33.900;151.170;2023-07-31T04:12:47;0.85;;;0.75;;
16426;SDS011;8322;-33.900;151.170;2023-07-31T04:15:17;2.50;;;0.90;;
16426;SDS011;8322;-33.900;151.170;2023-07-31T04:17:46;2.13;;;0.82;;
16426;SDS011;8322;-33.900;151.170;2023-07-31T04:20:16;2.03;;;0.93;;
16426;SDS011;8322;-33.900;151.170;2023-07-31T04:22:45;13.73;;;1.60;;
16426;SDS011;8322;-33.900;151.170;2023-07-31T04:25:18;3.35;;;0.82;;
16426;SDS011;8322;-33.900;151.170;2023-07-31T04:27:47;3.35;;;1.08;;
16426;SDS011;8322;-33.900;151.170;2023-07-31T04:30:17;1.75;;;0.88;;
16426;SDS011;8322;-33.900;151.170;2023-07-31T04:32:46;2.28;;;1.00;;
16426;SDS011;8322;-33.900;151.170;2023-07-31T04:35:16;2.92;;;1.13;;
16426;SDS011;8322;-33.900;151.170;2023-07-31T04:37:45;2.95;;;1.10;;
16426;SDS011;8322;-33.900;151.170;2023-07-31T04:40:15;1.73;;;0.82;;
16426;SDS011;8322;-33.900;151.170;2023-07-31T04:42:46;3.85;;;0.60;;
16426;SDS011;8322;-33.900;151.170;2023-07-31T04:45:16;2.63;;;0.98;;
16426;SDS011;8322;-33.900;151.170;2023-07-31T04:47:45;3.05;;;0.60;;
16426;SDS011;8322;-33.900;151.170;2023-07-31T04:50:15;1.50;;;0.80;;
16426;SDS011;8322;-33.900;151.170;2023-07-31T04:52:44;2.58;;;0.70;;
16426;SDS011;8322;-33.900;151.170;2023-07-31T04:55:14;1.73;;;0.90;;
16426;SDS011;8322;-33.900;151.170;2023-07-31T04:57:43;1.65;;;0.80;;
16426;SDS011;8322;-33.900;151.170;2023-07-31T05:00:15;2.08;;;0.90;;
16426;SDS011;8322;-33.900;151.170;2023-07-31T05:02:44;4.10;;;0.90;;
16426;SDS011;8322;-33.900;151.170;2023-07-31T05:05:14;0.63;;;0.60;;
16426;SDS011;8322;-33.900;151.170;2023-07-31T05:07:43;2.40;;;0.82;;
16426;SDS011;8322;-33.900;151.170;2023-07-31T05:10:13;1.58;;;0.70;;
16426;SDS011;8322;-33.900;151.170;2023-07-31T05:12:43;3.20;;;0.90;;
16426;SDS011;8322;-33.900;151.170;2023-07-31T05:15:14;1.17;;;0.77;;
16426;SDS011;8322;-33.900;151.170;2023-07-31T05:17:43;2.42;;;1.00;;
16426;SDS011;8322;-33.900;151.170;2023-07-31T05:20:13;2.47;;;0.70;;
16426;SDS011;8322;-33.900;151.170;2023-07-31T05:22:42;1.92;;;0.73;;
16426;SDS011;8322;-33.900;151.170;2023-07-31T05:25:12;1.80;;;0.85;;
16426;SDS011;8322;-33.900;151.170;2023-07-31T05:27:41;1.65;;;0.88;;
16426;SDS011;8322;-33.900;151.170;2023-07-31T05:30:11;1.08;;;0.70;;
16426;SDS011;8322;-33.900;151.170;2023-07-31T05:32:42;2.42;;;0.90;;
16426;SDS011;8322;-33.900;151.170;2023-07-31T05:35:12;4.63;;;1.48;;
16426;SDS011;8322;-33.900;151.170;2023-07-31T05:37:41;2.13;;;0.60;;
16426;SDS011;8322;-33.900;151.170;2023-07-31T05:40:11;2.38;;;0.77;;
16426;SDS011;8322;-33.900;151.170;2023-07-31T05:42:40;1.50;;;0.60;;
16426;SDS011;8322;-33.900;151.170;2023-07-31T05:45:10;1.55;;;0.80;;
16426;SDS011;8322;-33.900;151.170;2023-07-31T05:47:39;3.33;;;0.90;;
16426;SDS011;8322;-33.900;151.170;2023-07-31T05:50:11;2.22;;;0.60;;
16426;SDS011;8322;-33.900;151.170;2023-07-31T05:52:41;1.48;;;0.73;;
16426;SDS011;8322;-33.900;151.170;2023-07-31T05:55:10;0.82;;;0.70;;
16426;SDS011;8322;-33.900;151.170;2023-07-31T05:57:40;0.90;;;0.70;;
16426;SDS011;8322;-33.900;151.170;2023-07-31T06:00:12;1.85;;;0.70;;
16426;SDS011;8322;-33.900;151.170;2023-07-31T06:02:42;2.67;;;0.80;;
16426;SDS011;8322;-33.900;151.170;2023-07-31T06:05:13;2.08;;;0.55;;
16426;SDS011;8322;-33.900;151.170;2023-07-31T06:07:42;2.30;;;0.60;;
16426;SDS011;8322;-33.900;151.170;2023-07-31T06:10:12;3.22;;;0.60;;
16426;SDS011;8322;-33.900;151.170;2023-07-31T06:12:41;1.33;;;0.70;;
16426;SDS011;8322;-33.900;151.170;2023-07-31T06:15:11;2.45;;;0.70;;
16426;SDS011;8322;-33.900;151.170;2023-07-31T06:17:40;0.60;;;0.60;;
16426;SDS011;8322;-33.900;151.170;2023-07-31T06:20:10;1.35;;;0.70;;
16426;SDS011;8322;-33.900;151.170;2023-07-31T06:22:41;1.08;;;0.80;;
16426;SDS011;8322;-33.900;151.170;2023-07-31T06:25:12;1.70;;;0.70;;
16426;SDS011;8322;-33.900;151.170;2023-07-31T06:27:41;2.45;;;0.82;;
16426;SDS011;8322;-33.900;151.170;2023-07-31T06:30:11;1.10;;;0.80;;
16426;SDS011;8322;-33.900;151.170;2023-07-31T06:32:41;1.83;;;0.65;;
16426;SDS011;8322;-33.900;151.170;2023-07-31T06:35:11;1.75;;;0.80;;
16426;SDS011;8322;-33.900;151.170;2023-07-31T06:37:42;1.85;;;0.70;;
16426;SDS011;8322;-33.900;151.170;2023-07-31T06:40:12;1.48;;;1.00;;
16426;SDS011;8322;-33.900;151.170;2023-07-31T06:42:41;2.03;;;0.70;;
16426;SDS011;8322;-33.900;151.170;2023-07-31T06:45:10;2.85;;;0.90;;
16426;SDS011;8322;-33.900;151.170;2023-07-31T06:47:40;1.40;;;0.82;;
16426;SDS011;8322;-33.900;151.170;2023-07-31T06:50:09;3.55;;;1.00;;
16426;SDS011;8322;-33.900;151.170;2023-07-31T06:52:39;1.80;;;0.77;;
16426;SDS011;8322;-33.900;151.170;2023-07-31T06:55:18;1.70;;;1.20;;
16426;SDS011;8322;-33.900;151.170;2023-07-31T06:57:48;3.10;;;1.58;;
16426;SDS011;8322;-33.900;151.170;2023-07-31T07:00:18;3.83;;;1.30;;
16426;SDS011;8322;-33.900;151.170;2023-07-31T07:02:48;3.50;;;1.00;;
16426;SDS011;8322;-33.900;151.170;2023-07-31T07:05:17;3.03;;;1.00;;
16426;SDS011;8322;-33.900;151.170;2023-07-31T07:07:48;1.17;;;0.93;;
16426;SDS011;8322;-33.900;151.170;2023-07-31T07:10:22;3.05;;;1.00;;
16426;SDS011;8322;-33.900;151.170;2023-07-31T07:12:52;1.65;;;0.80;;
16426;SDS011;8322;-33.900;151.170;2023-07-31T07:15:22;2.35;;;1.10;;
16426;SDS011;8322;-33.900;151.170;2023-07-31T07:17:52;2.35;;;0.98;;
16426;SDS011;8322;-33.900;151.170;2023-07-31T07:20:22;1.75;;;1.00;;
16426;SDS011;8322;-33.900;151.170;2023-07-31T07:22:51;3.80;;;1.50;;
16426;SDS011;8322;-33.900;151.170;2023-07-31T07:25:22;3.67;;;1.20;;
16426;SDS011;8322;-33.900;151.170;2023-07-31T07:27:52;3.15;;;1.55;;
16426;SDS011;8322;-33.900;151.170;2023-07-31T07:30:21;5.10;;;1.65;;
16426;SDS011;8322;-33.900;151.170;2023-07-31T07:32:51;5.93;;;2.00;;
16426;SDS011;8322;-33.900;151.170;2023-07-31T07:35:20;5.85;;;2.22;;
16426;SDS011;8322;-33.900;151.170;2023-07-31T07:37:50;3.75;;;1.67;;
16426;SDS011;8322;-33.900;151.170;2023-07-31T07:40:19;4.50;;;1.80;;
16426;SDS011;8322;-33.900;151.170;2023-07-31T07:42:50;4.88;;;2.00;;
16426;SDS011;8322;-33.900;151.170;2023-07-31T07:45:20;3.42;;;1.50;;
16426;SDS011;8322;-33.900;151.170;2023-07-31T07:47:49;2.80;;;1.40;;
16426;SDS011;8322;-33.900;151.170;2023-07-31T07:50:19;4.88;;;1.83;;
16426;SDS011;8322;-33.900;151.170;2023-07-31T07:52:48;4.15;;;2.17;;
16426;SDS011;8322;-33.900;151.170;2023-07-31T07:55:18;6.47;;;1.75;;
16426;SDS011;8322;-33.900;151.170;2023-07-31T07:57:47;5.35;;;1.90;;
16426;SDS011;8322;-33.900;151.170;2023-07-31T08:00:19;3.78;;;1.70;;
16426;SDS011;8322;-33.900;151.170;2023-07-31T08:02:49;3.92;;;2.10;;
16426;SDS011;8322;-33.900;151.170;2023-07-31T08:05:19;4.20;;;1.88;;
16426;SDS011;8322;-33.900;151.170;2023-07-31T08:07:48;3.33;;;1.70;;
16426;SDS011;8322;-33.900;151.170;2023-07-31T08:10:18;3.15;;;1.85;;
16426;SDS011;8322;-33.900;151.170;2023-07-31T08:12:47;5.07;;;1.88;;
16426;SDS011;8322;-33.900;151.170;2023-07-31T08:15:17;5.72;;;1.73;;
16426;SDS011;8322;-33.900;151.170;2023-07-31T08:17:48;4.93;;;2.10;;
16426;SDS011;8322;-33.900;151.170;2023-07-31T08:20:30;5.45;;;2.28;;
16426;SDS011;8322;-33.900;151.170;2023-07-31T08:23:09;4.65;;;2.22;;
16426;SDS011;8322;-33.900;151.170;2023-07-31T08:25:39;6.03;;;2.10;;
16426;SDS011;8322;-33.900;151.170;2023-07-31T08:28:08;4.15;;;2.70;;
16426;SDS011;8322;-33.900;151.170;2023-07-31T08:30:38;6.68;;;3.80;;
16426;SDS011;8322;-33.900;151.170;2023-07-31T08:33:09;7.63;;;5.53;;
16426;SDS011;8322;-33.900;151.170;2023-07-31T08:35:38;14.70;;;10.98;;
16426;SDS011;8322;-33.900;151.170;2023-07-31T08:38:08;12.57;;;10.35;;
16426;SDS011;8322;-33.900;151.170;2023-07-31T08:40:37;12.57;;;7.75;;
16426;SDS011;8322;-33.900;151.170;2023-07-31T08:43:09;9.50;;;5.95;;
16426;SDS011;8322;-33.900;151.170;2023-07-31T08:45:38;8.30;;;5.18;;
16426;SDS011;8322;-33.900;151.170;2023-07-31T08:48:13;8.57;;;4.63;;
16426;SDS011;8322;-33.900;151.170;2023-07-31T08:50:43;6.05;;;3.85;;
16426;SDS011;8322;-33.900;151.170;2023-07-31T08:53:12;5.85;;;3.72;;
16426;SDS011;8322;-33.900;151.170;2023-07-31T08:55:42;8.95;;;4.75;;
16426;SDS011;8322;-33.900;151.170;2023-07-31T08:58:12;12.25;;;5.35;;
16426;SDS011;8322;-33.900;151.170;2023-07-31T09:00:43;7.55;;;3.40;;
16426;SDS011;8322;-33.900;151.170;2023-07-31T09:03:15;6.53;;;3.60;;
16426;SDS011;8322;-33.900;151.170;2023-07-31T09:05:45;4.57;;;3.08;;
16426;SDS011;8322;-33.900;151.170;2023-07-31T09:08:20;9.65;;;3.80;;
16426;SDS011;8322;-33.900;151.170;2023-07-31T09:10:53;6.20;;;3.55;;
16426;SDS011;8322;-33.900;151.170;2023-07-31T09:13:23;7.50;;;4.20;;
16426;SDS011;8322;-33.900;151.170;2023-07-31T09:15:52;7.78;;;4.15;;
16426;SDS011;8322;-33.900;151.170;2023-07-31T09:18:23;6.72;;;3.88;;
16426;SDS011;8322;-33.900;151.170;2023-07-31T09:21:02;6.70;;;3.53;;
16426;SDS011;8322;-33.900;151.170;2023-07-31T09:23:41;5.57;;;3.47;;
16426;SDS011;8322;-33.900;151.170;2023-07-31T09:26:11;4.28;;;2.90;;
16426;SDS011;8322;-33.900;151.170;2023-07-31T09:28:40;7.30;;;3.13;;
16426;SDS011;8322;-33.900;151.170;2023-07-31T09:31:10;6.38;;;3.67;;
16426;SDS011;8322;-33.900;151.170;2023-07-31T09:33:46;9.02;;;5.10;;
16426;SDS011;8322;-33.900;151.170;2023-07-31T09:36:23;8.57;;;6.05;;
16426;SDS011;8322;-33.900;151.170;2023-07-31T09:38:52;7.72;;;5.20;;
16426;SDS011;8322;-33.900;151.170;2023-07-31T09:41:22;9.15;;;5.63;;
16426;SDS011;8322;-33.900;151.170;2023-07-31T09:43:54;11.00;;;5.95;;
16426;SDS011;8322;-33.900;151.170;2023-07-31T09:46:24;26.95;;;12.65;;
16426;SDS011;8322;-33.900;151.170;2023-07-31T09:49:05;21.83;;;12.38;;
16426;SDS011;8322;-33.900;151.170;2023-07-31T09:51:35;19.20;;;10.30;;
16426;SDS011;8322;-33.900;151.170;2023-07-31T09:54:09;16.08;;;8.05;;
16426;SDS011;8322;-33.900;151.170;2023-07-31T09:56:43;12.25;;;8.02;;
16426;SDS011;8322;-33.900;151.170;2023-07-31T09:59:13;15.60;;;8.93;;
16426;SDS011;8322;-33.900;151.170;2023-07-31T10:01:43;24.05;;;21.08;;
16426;SDS011;8322;-33.900;151.170;2023-07-31T10:04:15;22.63;;;17.58;;
16426;SDS011;8322;-33.900;151.170;2023-07-31T10:06:45;13.80;;;11.95;;
16426;SDS011;8322;-33.900;151.170;2023-07-31T10:09:16;12.07;;;8.00;;
16426;SDS011;8322;-33.900;151.170;2023-07-31T10:11:50;13.38;;;7.10;;
16426;SDS011;8322;-33.900;151.170;2023-07-31T10:14:22;12.82;;;6.93;;
16426;SDS011;8322;-33.900;151.170;2023-07-31T10:16:53;9.90;;;6.57;;
16426;SDS011;8322;-33.900;151.170;2023-07-31T10:19:24;23.42;;;7.88;;
16426;SDS011;8322;-33.900;151.170;2023-07-31T10:21:56;11.95;;;6.03;;
16426;SDS011;8322;-33.900;151.170;2023-07-31T10:24:27;11.27;;;5.25;;
16426;SDS011;8322;-33.900;151.170;2023-07-31T10:26:57;9.88;;;4.68;;
16426;SDS011;8322;-33.900;151.170;2023-07-31T10:29:28;6.85;;;4.30;;
16426;SDS011;8322;-33.900;151.170;2023-07-31T10:31:58;7.15;;;4.03;;
16426;SDS011;8322;-33.900;151.170;2023-07-31T10:34:30;6.88;;;3.67;;
16426;SDS011;8322;-33.900;151.170;2023-07-31T10:39:50;7.32;;;4.50;;
16426;SDS011;8322;-33.900;151.170;2023-07-31T10:42:33;5.07;;;3.30;;
16426;SDS011;8322;-33.900;151.170;2023-07-31T10:45:04;3.53;;;2.65;;
16426;SDS011;8322;-33.900;151.170;2023-07-31T10:47:37;6.78;;;2.88;;
16426;SDS011;8322;-33.900;151.170;2023-07-31T10:52:52;5.82;;;2.65;;
16426;SDS011;8322;-33.900;151.170;2023-07-31T10:55:26;6.65;;;2.55;;
16426;SDS011;8322;-33.900;151.170;2023-07-31T10:57:56;3.53;;;2.30;;
16426;SDS011;8322;-33.900;151.170;2023-07-31T11:00:27;4.10;;;2.10;;
16426;SDS011;8322;-33.900;151.170;2023-07-31T11:02:57;3.45;;;1.92;;
16426;SDS011;8322;-33.900;151.170;2023-07-31T11:08:14;4.65;;;1.92;;
16426;SDS011;8322;-33.900;151.170;2023-07-31T11:10:44;4.03;;;2.10;;
16426;SDS011;8322;-33.900;151.170;2023-07-31T11:13:14;4.00;;;2.58;;
16426;SDS011;8322;-33.900;151.170;2023-07-31T11:15:43;3.55;;;2.50;;
16426;SDS011;8322;-33.900;151.170;2023-07-31T11:18:13;5.47;;;2.20;;
16426;SDS011;8322;-33.900;151.170;2023-07-31T11:20:42;2.40;;;1.70;;
16426;SDS011;8322;-33.900;151.170;2023-07-31T11:23:12;2.72;;;1.70;;
16426;SDS011;8322;-33.900;151.170;2023-07-31T11:25:43;3.28;;;1.88;;
16426;SDS011;8322;-33.900;151.170;2023-07-31T11:28:13;4.38;;;1.70;;
16426;SDS011;8322;-33.900;151.170;2023-07-31T11:30:43;3.10;;;1.40;;
16426;SDS011;8322;-33.900;151.170;2023-07-31T11:33:13;2.15;;;1.40;;
16426;SDS011;8322;-33.900;151.170;2023-07-31T11:35:43;3.88;;;1.60;;
16426;SDS011;8322;-33.900;151.170;2023-07-31T11:38:16;2.03;;;1.30;;
16426;SDS011;8322;-33.900;151.170;2023-07-31T11:40:52;3.03;;;1.70;;
16426;SDS011;8322;-33.900;151.170;2023-07-31T11:43:22;3.17;;;1.83;;
16426;SDS011;8322;-33.900;151.170;2023-07-31T11:45:53;2.17;;;1.55;;
16426;SDS011;8322;-33.900;151.170;2023-07-31T11:48:23;2.03;;;1.25;;
16426;SDS011;8322;-33.900;151.170;2023-07-31T11:50:53;2.15;;;1.25;;
16426;SDS011;8322;-33.900;151.170;2023-07-31T11:53:26;2.47;;;1.20;;
16426;SDS011;8322;-33.900;151.170;2023-07-31T11:55:58;1.98;;;1.02;;
16426;SDS011;8322;-33.900;151.170;2023-07-31T11:58:28;1.75;;;1.27;;
16426;SDS011;8322;-33.900;151.170;2023-07-31T12:00:58;3.67;;;1.35;;
16426;SDS011;8322;-33.900;151.170;2023-07-31T12:03:28;4.28;;;1.40;;
16426;SDS011;8322;-33.900;151.170;2023-07-31T12:05:58;1.75;;;1.17;;
16426;SDS011;8322;-33.900;151.170;2023-07-31T12:08:28;2.50;;;1.50;;
16426;SDS011;8322;-33.900;151.170;2023-07-31T12:11:04;2.85;;;1.70;;
16426;SDS011;8322;-33.900;151.170;2023-07-31T12:13:34;3.13;;;1.27;;
16426;SDS011;8322;-33.900;151.170;2023-07-31T12:16:03;2.58;;;1.33;;
16426;SDS011;8322;-33.900;151.170;2023-07-31T12:18:33;2.40;;;1.33;;
16426;SDS011;8322;-33.900;151.170;2023-07-31T12:21:04;1.55;;;1.35;;
16426;SDS011;8322;-33.900;151.170;2023-07-31T12:23:34;2.10;;;1.50;;
16426;SDS011;8322;-33.900;151.170;2023-07-31T12:26:06;4.10;;;2.33;;
16426;SDS011;8322;-33.900;151.170;2023-07-31T12:28:36;4.55;;;1.48;;
16426;SDS011;8322;-33.900;151.170;2023-07-31T12:31:06;4.35;;;1.45;;
16426;SDS011;8322;-33.900;151.170;2023-07-31T12:33:36;3.47;;;1.40;;
16426;SDS011;8322;-33.900;151.170;2023-07-31T12:36:07;3.17;;;1.40;;
16426;SDS011;8322;-33.900;151.170;2023-07-31T12:38:37;3.55;;;1.42;;
16426;SDS011;8322;-33.900;151.170;2023-07-31T12:41:08;3.00;;;1.63;;
16426;SDS011;8322;-33.900;151.170;2023-07-31T12:43:38;4.53;;;1.50;;
16426;SDS011;8322;-33.900;151.170;2023-07-31T12:46:08;2.33;;;1.55;;
16426;SDS011;8322;-33.900;151.170;2023-07-31T12:48:39;5.00;;;1.38;;
16426;SDS011;8322;-33.900;151.170;2023-07-31T12:51:08;3.25;;;1.52;;
16426;SDS011;8322;-33.900;151.170;2023-07-31T12:53:38;2.05;;;1.25;;
16426;SDS011;8322;-33.900;151.170;2023-07-31T12:56:09;3.00;;;1.55;;
16426;SDS011;8322;-33.900;151.170;2023-07-31T12:58:39;4.15;;;1.40;;
16426;SDS011;8322;-33.900;151.170;2023-07-31T13:01:08;2.35;;;1.60;;
16426;SDS011;8322;-33.900;151.170;2023-07-31T13:03:39;3.80;;;1.73;;
16426;SDS011;8322;-33.900;151.170;2023-07-31T13:06:08;3.00;;;1.63;;
16426;SDS011;8322;-33.900;151.170;2023-07-31T13:08:38;3.92;;;1.52;;
16426;SDS011;8322;-33.900;151.170;2023-07-31T13:11:09;4.97;;;1.60;;
16426;SDS011;8322;-33.900;151.170;2023-07-31T13:13:39;4.03;;;1.50;;
16426;SDS011;8322;-33.900;151.170;2023-07-31T13:16:08;2.40;;;1.30;;
16426;SDS011;8322;-33.900;151.170;2023-07-31T13:18:38;1.90;;;1.50;;
16426;SDS011;8322;-33.900;151.170;2023-07-31T13:21:07;3.15;;;1.70;;
16426;SDS011;8322;-33.900;151.170;2023-07-31T13:23:36;2.45;;;1.50;;
16426;SDS011;8322;-33.900;151.170;2023-07-31T13:26:06;2.67;;;1.40;;
16426;SDS011;8322;-33.900;151.170;2023-07-31T13:28:37;3.60;;;1.38;;
16426;SDS011;8322;-33.900;151.170;2023-07-31T13:31:06;3.13;;;1.42;;
16426;SDS011;8322;-33.900;151.170;2023-07-31T13:33:37;2.83;;;1.52;;
16426;SDS011;8322;-33.900;151.170;2023-07-31T13:36:06;4.20;;;2.60;;
16426;SDS011;8322;-33.900;151.170;2023-07-31T13:38:36;2.90;;;1.30;;
16426;SDS011;8322;-33.900;151.170;2023-07-31T13:41:05;2.72;;;1.45;;
16426;SDS011;8322;-33.900;151.170;2023-07-31T13:43:35;3.85;;;2.33;;
16426;SDS011;8322;-33.900;151.170;2023-07-31T13:46:06;3.13;;;1.63;;
16426;SDS011;8322;-33.900;151.170;2023-07-31T13:48:36;2.78;;;1.23;;
16426;SDS011;8322;-33.900;151.170;2023-07-31T13:51:06;2.60;;;1.20;;
16426;SDS011;8322;-33.900;151.170;2023-07-31T13:53:38;2.10;;;1.40;;
16426;SDS011;8322;-33.900;151.170;2023-07-31T13:56:07;4.03;;;1.30;;
16426;SDS011;8322;-33.900;151.170;2023-07-31T13:58:38;4.82;;;2.05;;
16426;SDS011;8322;-33.900;151.170;2023-07-31T14:01:09;2.90;;;1.40;;
16426;SDS011;8322;-33.900;151.170;2023-07-31T14:03:39;3.03;;;2.10;;
16426;SDS011;8322;-33.900;151.170;2023-07-31T14:06:08;4.90;;;2.80;;
16426;SDS011;8322;-33.900;151.170;2023-07-31T14:08:38;5.97;;;2.72;;
16426;SDS011;8322;-33.900;151.170;2023-07-31T14:11:07;4.45;;;2.80;;
16426;SDS011;8322;-33.900;151.170;2023-07-31T14:13:37;3.30;;;1.60;;
16426;SDS011;8322;-33.900;151.170;2023-07-31T14:16:06;2.55;;;1.17;;
16426;SDS011;8322;-33.900;151.170;2023-07-31T14:18:38;3.40;;;1.30;;
16426;SDS011;8322;-33.900;151.170;2023-07-31T14:21:08;3.90;;;1.45;;
16426;SDS011;8322;-33.900;151.170;2023-07-31T14:23:38;2.75;;;1.25;;
16426;SDS011;8322;-33.900;151.170;2023-07-31T14:26:07;2.75;;;1.17;;
16426;SDS011;8322;-33.900;151.170;2023-07-31T14:28:36;6.25;;;1.67;;
16426;SDS011;8322;-33.900;151.170;2023-07-31T14:31:06;5.72;;;1.38;;
16426;SDS011;8322;-33.900;151.170;2023-07-31T14:33:35;2.60;;;1.33;;
16426;SDS011;8322;-33.900;151.170;2023-07-31T14:36:07;3.03;;;1.20;;
16426;SDS011;8322;-33.900;151.170;2023-07-31T14:38:36;3.65;;;1.40;;
16426;SDS011;8322;-33.900;151.170;2023-07-31T14:41:05;1.83;;;1.20;;
16426;SDS011;8322;-33.900;151.170;2023-07-31T14:43:35;2.40;;;1.50;;
16426;SDS011;8322;-33.900;151.170;2023-07-31T14:46:05;2.40;;;1.20;;
16426;SDS011;8322;-33.900;151.170;2023-07-31T14:48:34;3.83;;;1.15;;